Time;durP1;ratioP1;P1;durP2;ratioP2;P2;SDS_P1;SDS_P2;PMS_P1;PMS_P2;Temp;Humidity;BMP_temperature;BMP_pressure;BME280_temperature;BME280_humidity;BME280_pressure;Samples;Min_cycle;Max_cycle;Signal;HPM_P1;HPM_P2
2022/12/23 05:06:39;;;;;;;;;60.67;49.67;;;;;;;;6373808;39;5001069;-58
2022/12/23 05:12:42;;;;;;;;;54.33;45.00;;;;;;;;6490693;39;8828;-59
2022/12/23 05:18:45;;;;;;;;;66.67;50.67;;;;;;;;6489997;39;8951;-60
2022/12/23 05:24:47;;;;;;;;;60.00;45.00;;;;;;;;6490959;39;9671;-59
2022/12/23 05:31:00;;;;;;;;;71.00;53.00;;;;;;;;6489486;39;8952;-58
2022/12/23 05:37:04;;;;;;;;;68.33;51.33;;;;;;;;6488186;39;8864;-59
2022/12/23 05:43:06;;;;;;;;;64.33;49.67;;;;;;;;6490074;31;8901;-59
2022/12/23 05:49:10;;;;;;;;;69.67;52.00;;;;;;;;6308530;31;10002650;-58
2022/12/23 05:55:13;;;;;;;;;68.00;50.33;;;;;;;;6490068;46;8869;-58
2022/12/23 06:01:15;;;;;;;;;73.00;58.00;;;;;;;;6489513;39;8891;-60
2022/12/23 06:07:20;;;;;;;;;52.33;42.00;;;;;;;;6488359;46;9159;-59
2022/12/23 06:13:23;;;;;;;;;72.67;55.00;;;;;;;;6487696;31;8940;-59
2022/12/23 06:19:25;;;;;;;;;70.00;54.33;;;;;;;;6488230;46;8874;-59
2022/12/23 06:25:28;;;;;;;;;73.00;54.67;;;;;;;;6489236;46;8869;-60
2022/12/23 06:31:31;;;;;;;;;67.00;50.33;;;;;;;;6487786;47;8977;-59
2022/12/23 06:37:34;;;;;;;;;66.67;51.33;;;;;;;;6488298;39;8881;-60
2022/12/23 06:43:37;;;;;;;;;76.00;55.00;;;;;;;;6491914;31;8926;-60
2022/12/23 06:49:42;;;;;;;;;78.67;62.33;;;;;;;;6491904;46;8937;-60
2022/12/23 06:55:44;;;;;;;;;76.33;60.33;;;;;;;;6493529;39;8890;-60
2022/12/23 07:01:46;;;;;;;;;78.67;62.67;;;;;;;;6491880;46;8920;-61
2022/12/23 07:07:48;;;;;;;;;70.00;52.00;;;;;;;;6492023;46;8993;-60
2022/12/23 07:13:51;;;;;;;;;77.67;60.00;;;;;;;;6490717;31;8967;-59
2022/12/23 07:19:55;;;;;;;;;68.00;52.67;;;;;;;;6490309;46;8863;-61
2022/12/23 07:25:57;;;;;;;;;73.33;54.33;;;;;;;;6491339;46;8885;-59
2022/12/23 07:32:01;;;;;;;;;78.00;60.67;;;;;;;;6491175;31;9021;-61
2022/12/23 07:38:04;;;;;;;;;86.33;65.33;;;;;;;;6491675;39;8861;-59
2022/12/23 07:44:08;;;;;;;;;85.00;66.00;;;;;;;;6490195;39;8968;-59
2022/12/23 07:50:11;;;;;;;;;82.33;63.33;;;;;;;;6490926;31;8881;-60
2022/12/23 07:56:16;;;;;;;;;78.67;63.67;;;;;;;;6488613;39;8917;-60
2022/12/23 08:02:20;;;;;;;;;88.33;69.00;;;;;;;;6488307;31;8985;-59
2022/12/23 08:08:23;;;;;;;;;90.67;69.33;;;;;;;;6487092;46;9067;-61
2022/12/23 08:14:28;;;;;;;;;89.33;67.00;;;;;;;;6488090;31;8910;-60
2022/12/23 08:20:30;;;;;;;;;80.00;62.33;;;;;;;;6487337;32;8908;-59
2022/12/23 08:26:32;;;;;;;;;83.67;66.33;;;;;;;;6488277;39;8904;-59
2022/12/23 08:32:34;;;;;;;;;86.33;66.00;;;;;;;;6486711;31;9561;-60
2022/12/23 08:38:37;;;;;;;;;85.00;65.33;;;;;;;;6486705;46;9166;-60
2022/12/23 08:44:39;;;;;;;;;87.00;64.67;;;;;;;;6486882;39;9593;-59
2022/12/23 08:50:45;;;;;;;;;85.33;66.00;;;;;;;;6486883;39;9012;-59
2022/12/23 08:56:48;;;;;;;;;83.33;66.67;;;;;;;;6487904;39;8871;-60
2022/12/23 09:02:50;;;;;;;;;85.67;64.33;;;;;;;;6486739;39;8959;-60
2022/12/23 09:08:53;;;;;;;;;78.00;63.75;;;;;;;;6487276;39;8945;-59
2022/12/23 09:14:55;;;;;;;;;76.00;63.00;;;;;;;;6487147;31;8936;-59
2022/12/23 09:21:01;;;;;;;;;79.67;64.33;;;;;;;;6486463;31;8878;-60
2022/12/23 09:27:05;;;;;;;;;83.67;65.00;;;;;;;;6486850;31;8884;-60
2022/12/23 09:33:07;;;;;;;;;85.33;64.67;;;;;;;;6486450;31;8885;-60
2022/12/23 09:39:11;;;;;;;;;89.67;67.33;;;;;;;;6486216;39;8936;-59
2022/12/23 09:45:37;;;;;;;;;85.00;67.33;;;;;;;;6486040;46;8925;-60
2022/12/23 09:51:43;;;;;;;;;87.00;68.67;;;;;;;;6487111;39;8970;-59
2022/12/23 09:57:55;;;;;;;;;84.50;65.25;;;;;;;;6487199;31;9584;-61
2022/12/23 10:04:22;;;;;;;;;94.67;70.67;;;;;;;;6486343;39;8971;-60
2022/12/23 10:10:41;;;;;;;;;93.67;70.33;;;;;;;;6486157;39;8985;-61
2022/12/23 10:16:50;;;;;;;;;83.00;67.67;;;;;;;;6485904;31;9531;-60
2022/12/23 10:22:55;;;;;;;;;91.00;71.33;;;;;;;;6486837;31;8909;-61
2022/12/23 10:29:22;;;;;;;;;85.00;65.00;;;;;;;;6485607;46;8957;-61
2022/12/23 10:35:38;;;;;;;;;92.33;72.00;;;;;;;;6487146;31;8853;-60
2022/12/23 10:42:10;;;;;;;;;87.33;69.67;;;;;;;;6485821;39;8932;-61
2022/12/23 10:48:49;;;;;;;;;88.75;70.25;;;;;;;;6486308;39;9568;-59
2022/12/23 10:54:51;;;;;;;;;90.25;70.50;;;;;;;;6485057;39;8880;-61
2022/12/23 11:00:57;;;;;;;;;93.50;71.25;;;;;;;;6486351;39;8893;-61
2022/12/23 11:07:03;;;;;;;;;88.50;68.25;;;;;;;;6486705;39;8964;-61
2022/12/23 11:13:35;;;;;;;;;88.25;69.50;;;;;;;;6486816;31;8913;-60
2022/12/23 11:19:41;;;;;;;;;88.50;69.00;;;;;;;;6485880;39;8889;-59
2022/12/23 11:25:44;;;;;;;;;65.25;52.50;;;;;;;;6485612;46;8895;-60
2022/12/23 11:31:47;;;;;;;;;84.50;65.25;;;;;;;;6487814;31;9110;-59
2022/12/23 11:37:50;;;;;;;;;91.25;70.50;;;;;;;;6486255;46;8907;-60
2022/12/23 11:44:10;;;;;;;;;84.75;68.25;;;;;;;;6487607;31;9011;-60
2022/12/23 11:50:19;;;;;;;;;84.00;68.00;;;;;;;;6487789;46;8872;-59
2022/12/23 11:56:21;;;;;;;;;86.75;67.25;;;;;;;;6488066;31;8840;-60
2022/12/23 12:02:31;;;;;;;;;90.25;68.50;;;;;;;;6487274;31;8889;-60
2022/12/23 12:08:37;;;;;;;;;95.00;70.75;;;;;;;;6486155;39;8951;-59
2022/12/23 12:14:47;;;;;;;;;79.25;61.00;;;;;;;;6487489;39;8856;-60
2022/12/23 12:20:55;;;;;;;;;86.00;65.00;;;;;;;;6487353;31;8844;-61
2022/12/23 12:27:03;;;;;;;;;89.00;64.25;;;;;;;;6487681;31;8913;-62
2022/12/23 12:33:47;;;;;;;;;82.00;63.50;;;;;;;;6487344;46;8859;-59
2022/12/23 12:39:55;;;;;;;;;89.00;69.00;;;;;;;;6485729;39;8895;-60
2022/12/23 12:46:25;;;;;;;;;82.00;65.67;;;;;;;;6486763;39;8927;-59
2022/12/23 12:52:32;;;;;;;;;90.00;70.50;;;;;;;;6487611;31;8938;-61
2022/12/23 12:58:34;;;;;;;;;87.50;68.00;;;;;;;;6487615;31;8996;-60
2022/12/23 13:05:10;;;;;;;;;91.50;71.25;;;;;;;;6486176;31;9028;-60
2022/12/23 13:11:25;;;;;;;;;91.75;69.00;;;;;;;;6487196;31;9076;-60
2022/12/23 13:17:57;;;;;;;;;90.25;71.25;;;;;;;;6485483;31;9127;-58
2022/12/23 13:24:26;;;;;;;;;88.75;69.25;;;;;;;;6487331;39;8841;-60
2022/12/23 13:30:51;;;;;;;;;87.50;68.75;;;;;;;;6487093;31;9057;-59
2022/12/23 13:37:05;;;;;;;;;90.00;70.25;;;;;;;;6487169;39;8861;-60
2022/12/23 13:43:17;;;;;;;;;85.75;63.00;;;;;;;;6485569;31;8923;-61
2022/12/23 13:49:31;;;;;;;;;91.00;72.50;;;;;;;;6486002;39;8937;-61
2022/12/23 13:56:09;;;;;;;;;89.50;71.00;;;;;;;;6486249;31;8962;-60
2022/12/23 14:02:32;;;;;;;;;94.75;72.75;;;;;;;;6486521;31;8877;-60
2022/12/23 14:08:41;;;;;;;;;94.25;70.00;;;;;;;;6486403;31;8958;-60
2022/12/23 14:15:11;;;;;;;;;82.75;66.00;;;;;;;;6485480;39;8893;-61
2022/12/23 14:21:32;;;;;;;;;94.75;70.75;;;;;;;;6486185;39;8906;-61
2022/12/23 14:27:54;;;;;;;;;92.50;71.25;;;;;;;;6486897;31;8877;-62
2022/12/23 14:34:24;;;;;;;;;85.00;62.50;;;;;;;;6486172;31;8919;-61
2022/12/23 14:40:42;;;;;;;;;90.00;70.00;;;;;;;;6485893;39;8949;-60
2022/12/23 14:46:44;;;;;;;;;92.25;73.00;;;;;;;;6486657;31;9064;-61
2022/12/23 14:52:57;;;;;;;;;87.00;66.25;;;;;;;;6485432;47;8933;-59
2022/12/23 14:59:23;;;;;;;;;95.33;73.00;;;;;;;;6486000;39;9577;-60
2022/12/23 15:05:29;;;;;;;;;96.25;74.00;;;;;;;;6488938;31;8972;-61
2022/12/23 15:11:35;;;;;;;;;86.00;66.33;;;;;;;;6487908;39;8942;-59
2022/12/23 15:17:38;;;;;;;;;92.75;72.00;;;;;;;;6487103;31;8913;-59
2022/12/23 15:23:49;;;;;;;;;83.00;67.75;;;;;;;;6486902;31;8899;-61
2022/12/23 15:29:52;;;;;;;;;87.67;66.33;;;;;;;;6488012;39;8941;-59
2022/12/23 15:35:56;;;;;;;;;95.00;72.33;;;;;;;;6487825;31;8867;-62
2022/12/23 15:41:59;;;;;;;;;90.67;73.00;;;;;;;;6486625;39;8935;-61
2022/12/23 15:48:05;;;;;;;;;93.00;73.67;;;;;;;;6487707;46;9014;-60
2022/12/23 15:54:21;;;;;;;;;97.33;74.33;;;;;;;;6488106;39;8993;-60
2022/12/23 16:00:37;;;;;;;;;99.00;77.33;;;;;;;;6486592;46;8930;-60
2022/12/23 16:06:40;;;;;;;;;98.00;77.00;;;;;;;;6487961;31;9047;-60
2022/12/23 16:12:43;;;;;;;;;90.33;71.00;;;;;;;;6486999;46;9042;-62
2022/12/23 16:18:45;;;;;;;;;91.50;72.50;;;;;;;;6486680;39;8861;-60
2022/12/23 16:24:55;;;;;;;;;91.67;72.67;;;;;;;;6486033;31;8879;-61
2022/12/23 16:30:57;;;;;;;;;95.33;74.67;;;;;;;;6487184;46;8916;-60
2022/12/23 16:37:07;;;;;;;;;95.67;74.67;;;;;;;;6486016;39;8904;-60
2022/12/23 16:43:11;;;;;;;;;94.00;70.67;;;;;;;;6486924;46;8916;-61
2022/12/23 16:49:20;;;;;;;;;98.33;76.00;;;;;;;;6486470;39;8962;-60
2022/12/23 16:55:30;;;;;;;;;100.67;78.67;;;;;;;;6486640;39;8841;-62
2022/12/23 17:01:37;;;;;;;;;103.00;78.33;;;;;;;;6488112;39;8918;-60
2022/12/23 17:07:39;;;;;;;;;105.33;79.00;;;;;;;;6486034;39;9523;-59
2022/12/23 17:13:48;;;;;;;;;99.67;76.67;;;;;;;;6486492;39;9396;-59
2022/12/23 17:19:50;;;;;;;;;107.00;82.67;;;;;;;;6485949;31;9544;-60
2022/12/23 17:25:53;;;;;;;;;98.33;75.67;;;;;;;;6487421;39;8967;-60
2022/12/23 17:31:57;;;;;;;;;100.67;78.33;;;;;;;;6487007;31;8924;-59
2022/12/23 17:38:00;;;;;;;;;100.67;75.67;;;;;;;;6486983;39;9594;-61
2022/12/23 17:44:02;;;;;;;;;99.00;77.00;;;;;;;;6488101;31;8963;-60
2022/12/23 17:50:06;;;;;;;;;106.00;80.33;;;;;;;;6485883;31;8904;-60
2022/12/23 17:56:15;;;;;;;;;100.67;75.67;;;;;;;;6486574;39;8915;-61
2022/12/23 18:02:22;;;;;;;;;96.00;76.00;;;;;;;;6487109;39;8889;-60
2022/12/23 18:08:25;;;;;;;;;102.00;78.33;;;;;;;;6486522;31;9048;-62
2022/12/23 18:14:30;;;;;;;;;97.33;75.33;;;;;;;;6487051;39;8915;-60
2022/12/23 18:20:33;;;;;;;;;112.67;91.67;;;;;;;;6485892;31;9017;-60
2022/12/23 18:26:35;;;;;;;;;105.33;80.67;;;;;;;;6486894;39;8883;-62
